Time;durP1;ratioP1;P1;durP2;ratioP2;P2;SDS_P1;SDS_P2;PMS_P1;PMS_P2;Temp;Humidity;BMP_temperature;BMP_pressure;BME280_temperature;BME280_humidity;BME280_pressure;Samples;Min_cycle;Max_cycle;Signal;HPM_P1;HPM_P2
2022/06/07 00:02:08;;;;;;;15.88;8.65;;;;;;;;;;4935931;28;20103;-59
2022/06/07 00:04:35;;;;;;;15.80;8.90;;;;;;;;;;4935586;28;20032;-59
2022/06/07 00:07:02;;;;;;;16.17;8.90;;;;;;;;;;4934600;29;20048;-60
2022/06/07 00:09:28;;;;;;;16.52;9.35;;;;;;;;;;4935041;28;20036;-60
2022/06/07 00:11:54;;;;;;;17.35;9.73;;;;;;;;;;4935264;29;20395;-59
2022/06/07 00:14:20;;;;;;;16.23;9.35;;;;;;;;;;4935276;29;20464;-58
2022/06/07 00:16:46;;;;;;;16.77;9.50;;;;;;;;;;4917961;28;20036;-57
2022/06/07 00:19:12;;;;;;;16.65;10.02;;;;;;;;;;4935102;28;20114;-60
2022/06/07 00:21:38;;;;;;;17.42;10.55;;;;;;;;;;4935103;28;20403;-59
2022/06/07 00:24:04;;;;;;;17.48;9.88;;;;;;;;;;4935108;29;20024;-60
2022/06/07 00:26:32;;;;;;;17.13;10.73;;;;;;;;;;4934936;29;20027;-60
2022/06/07 00:28:59;;;;;;;18.70;10.93;;;;;;;;;;4934769;29;20107;-59
2022/06/07 00:31:25;;;;;;;18.08;11.27;;;;;;;;;;4934962;29;20472;-60
2022/06/07 00:33:51;;;;;;;21.92;11.90;;;;;;;;;;4934984;28;20035;-61
2022/06/07 00:36:17;;;;;;;18.65;12.07;;;;;;;;;;4934805;29;20388;-61
2022/06/07 00:38:43;;;;;;;23.45;12.25;;;;;;;;;;4934572;28;20038;-59
2022/06/07 00:41:10;;;;;;;20.27;11.80;;;;;;;;;;4917842;28;20024;-59
2022/06/07 00:43:36;;;;;;;19.63;12.23;;;;;;;;;;4934817;28;20119;-60
2022/06/07 00:46:06;;;;;;;19.60;12.35;;;;;;;;;;4934924;29;20043;-60
2022/06/07 00:48:32;;;;;;;20.00;12.50;;;;;;;;;;4934576;29;20030;-59
2022/06/07 00:51:17;;;;;;;21.77;13.88;;;;;;;;;;4917791;28;20114;-60
2022/06/07 00:53:43;;;;;;;20.30;12.48;;;;;;;;;;4934660;29;20060;-61
2022/06/07 00:56:09;;;;;;;23.23;12.68;;;;;;;;;;4934639;28;20062;-60
2022/06/07 00:58:36;;;;;;;21.42;13.45;;;;;;;;;;4934185;29;20472;-61
2022/06/07 01:01:02;;;;;;;23.02;13.70;;;;;;;;;;4934494;29;20038;-61
2022/06/07 01:03:28;;;;;;;21.35;13.68;;;;;;;;;;4934465;29;20365;-60
2022/06/07 01:05:54;;;;;;;22.25;14.15;;;;;;;;;;4934552;29;20472;-61
2022/06/07 01:11:06;;;;;;;21.92;13.23;;;;;;;;;;4913959;29;20169;-60
2022/06/07 01:13:34;;;;;;;22.60;13.95;;;;;;;;;;4914219;29;20100;-61
2022/06/07 01:16:02;;;;;;;21.05;13.45;;;;;;;;;;4914148;29;20122;-61
2022/06/07 01:18:29;;;;;;;21.10;13.60;;;;;;;;;;4909134;29;20028;-61
2022/06/07 01:21:10;;;;;;;23.60;14.57;;;;;;;;;;4933036;29;20404;-61
2022/06/07 01:23:36;;;;;;;21.27;13.30;;;;;;;;;;4932904;29;20070;-61
2022/06/07 01:26:02;;;;;;;21.38;12.77;;;;;;;;;;4932956;29;20055;-61
2022/06/07 01:28:28;;;;;;;22.05;13.05;;;;;;;;;;4932618;29;20095;-61
2022/06/07 01:30:57;;;;;;;20.77;13.07;;;;;;;;;;4932830;29;20513;-61
2022/06/07 01:33:23;;;;;;;22.20;13.68;;;;;;;;;;4915841;28;20244;-61
2022/06/07 01:35:59;;;;;;;21.27;12.73;;;;;;;;;;4932593;29;20043;-61
2022/06/07 01:38:25;;;;;;;22.88;14.38;;;;;;;;;;4932354;29;20074;-59
2022/06/07 01:43:36;;;;;;;22.20;14.98;;;;;;;;;;4932512;29;20467;-61
2022/06/07 01:46:05;;;;;;;22.90;15.10;;;;;;;;;;4932774;28;20115;-61
2022/06/07 01:48:32;;;;;;;24.45;15.25;;;;;;;;;;4915198;28;20027;-59
2022/06/07 01:51:02;;;;;;;24.83;15.65;;;;;;;;;;4915484;28;20031;-59
2022/06/07 01:53:28;;;;;;;34.42;15.68;;;;;;;;;;4932678;28;20032;-61
2022/06/07 01:56:00;;;;;;;24.92;15.52;;;;;;;;;;4932396;29;20576;-61
2022/06/07 01:58:26;;;;;;;23.55;15.20;;;;;;;;;;4932172;29;20102;-61
2022/06/07 02:00:55;;;;;;;24.17;16.45;;;;;;;;;;4932452;29;20448;-61
2022/06/07 02:03:21;;;;;;;26.50;16.45;;;;;;;;;;4932343;28;20023;-59
2022/06/07 02:05:54;;;;;;;24.35;17.15;;;;;;;;;;4932354;29;20507;-61
2022/06/07 02:08:20;;;;;;;28.27;17.50;;;;;;;;;;4931840;28;20526;-61
2022/06/07 02:10:46;;;;;;;26.77;16.65;;;;;;;;;;4932175;29;20052;-60
2022/06/07 02:13:12;;;;;;;28.45;19.60;;;;;;;;;;4932270;29;20024;-60
2022/06/07 02:15:38;;;;;;;27.00;17.25;;;;;;;;;;4932017;29;20118;-62
2022/06/07 02:18:04;;;;;;;27.33;17.95;;;;;;;;;;4931869;28;20051;-61
2022/06/07 02:20:30;;;;;;;28.77;18.63;;;;;;;;;;4931743;28;20027;-61
2022/06/07 02:22:56;;;;;;;27.95;19.02;;;;;;;;;;4932268;29;20543;-61
2022/06/07 02:25:22;;;;;;;29.10;18.27;;;;;;;;;;4932362;29;20054;-61
2022/06/07 02:27:48;;;;;;;27.15;18.10;;;;;;;;;;4914883;28;20097;-61
2022/06/07 02:30:14;;;;;;;28.23;18.27;;;;;;;;;;4932029;29;20448;-61
2022/06/07 02:32:40;;;;;;;29.25;18.88;;;;;;;;;;4932565;28;20175;-61
2022/06/07 02:35:07;;;;;;;29.25;19.25;;;;;;;;;;4931887;29;20488;-61
2022/06/07 02:37:34;;;;;;;29.67;19.27;;;;;;;;;;4931508;29;20028;-61
2022/06/07 02:40:00;;;;;;;28.35;19.38;;;;;;;;;;4931997;29;20026;-61
2022/06/07 02:42:28;;;;;;;29.13;19.85;;;;;;;;;;4914833;28;20081;-61
2022/06/07 02:44:54;;;;;;;30.10;20.38;;;;;;;;;;4914657;28;20123;-61
2022/06/07 02:47:20;;;;;;;29.83;20.13;;;;;;;;;;4931377;29;20485;-61
2022/06/07 02:49:47;;;;;;;29.75;20.60;;;;;;;;;;4931731;29;20027;-61
2022/06/07 02:52:13;;;;;;;29.75;20.42;;;;;;;;;;4914683;28;20020;-60
2022/06/07 02:54:39;;;;;;;31.52;21.45;;;;;;;;;;4931751;29;20027;-60
2022/06/07 02:57:05;;;;;;;28.63;19.38;;;;;;;;;;4931652;29;20381;-60
2022/06/07 02:59:31;;;;;;;31.48;20.17;;;;;;;;;;4931338;28;20046;-58
2022/06/07 03:01:57;;;;;;;29.52;19.63;;;;;;;;;;4931655;28;20115;-57
2022/06/07 03:04:23;;;;;;;27.85;20.00;;;;;;;;;;4914461;28;20123;-59
2022/06/07 03:06:49;;;;;;;31.35;21.25;;;;;;;;;;4931529;28;20127;-60
2022/06/07 03:09:15;;;;;;;31.15;20.92;;;;;;;;;;4913920;28;20039;-60
2022/06/07 03:11:41;;;;;;;29.15;19.83;;;;;;;;;;4914182;28;20036;-60
2022/06/07 03:14:07;;;;;;;29.88;20.48;;;;;;;;;;4914309;28;20031;-60
2022/06/07 03:16:33;;;;;;;29.15;20.38;;;;;;;;;;4931229;29;20438;-60
2022/06/07 03:19:00;;;;;;;31.17;19.98;;;;;;;;;;4930937;28;20028;-60
2022/06/07 03:21:28;;;;;;;28.52;19.85;;;;;;;;;;4931352;29;20028;-60
2022/06/07 03:23:54;;;;;;;32.53;19.33;;;;;;;;;;4931182;29;20023;-61
2022/06/07 03:26:20;;;;;;;27.90;18.95;;;;;;;;;;4914343;28;20058;-60
2022/06/07 03:28:46;;;;;;;29.60;18.58;;;;;;;;;;4930312;29;20032;-60
2022/06/07 03:31:13;;;;;;;27.92;18.50;;;;;;;;;;4914139;28;20031;-60
2022/06/07 03:33:40;;;;;;;27.55;18.95;;;;;;;;;;4930175;29;20497;-60
2022/06/07 03:36:12;;;;;;;28.48;20.20;;;;;;;;;;4930896;28;20414;-61
2022/06/07 03:38:38;;;;;;;28.98;20.65;;;;;;;;;;4913695;28;20032;-60
2022/06/07 03:41:04;;;;;;;27.08;19.35;;;;;;;;;;4930833;28;20475;-60
2022/06/07 03:43:30;;;;;;;28.05;19.95;;;;;;;;;;4930694;29;20032;-57
2022/06/07 03:45:56;;;;;;;27.33;18.75;;;;;;;;;;4930816;29;20419;-60
2022/06/07 03:48:22;;;;;;;27.13;19.25;;;;;;;;;;4930604;28;20062;-60
2022/06/07 03:50:49;;;;;;;26.33;18.10;;;;;;;;;;4913661;28;20055;-60
2022/06/07 03:53:15;;;;;;;26.88;19.23;;;;;;;;;;4930890;28;20031;-58
2022/06/07 03:55:47;;;;;;;25.05;18.15;;;;;;;;;;4930716;29;20101;-59
2022/06/07 03:58:13;;;;;;;26.25;18.38;;;;;;;;;;4930560;29;20032;-60
2022/06/07 04:00:40;;;;;;;25.75;18.50;;;;;;;;;;4930877;29;20028;-59
2022/06/07 04:03:06;;;;;;;24.92;17.88;;;;;;;;;;4930968;28;20028;-60
2022/06/07 04:05:32;;;;;;;25.02;17.52;;;;;;;;;;4930638;28;20069;-60
2022/06/07 04:08:13;;;;;;;24.23;16.30;;;;;;;;;;4930235;28;20491;-60
2022/06/07 04:10:50;;;;;;;23.63;15.88;;;;;;;;;;4930606;28;20058;-60
2022/06/07 04:13:17;;;;;;;22.65;15.60;;;;;;;;;;4930499;29;20103;-61
2022/06/07 04:15:43;;;;;;;24.00;15.43;;;;;;;;;;4930282;28;20031;-58
2022/06/07 04:18:09;;;;;;;24.17;15.68;;;;;;;;;;4930588;29;20031;-61
2022/06/07 04:20:36;;;;;;;23.15;14.95;;;;;;;;;;4929907;29;20024;-59
2022/06/07 04:23:02;;;;;;;22.48;15.98;;;;;;;;;;4930596;28;20035;-61
2022/06/07 04:25:29;;;;;;;22.08;15.02;;;;;;;;;;4913387;28;20034;-61
2022/06/07 04:27:55;;;;;;;21.17;14.05;;;;;;;;;;4930280;28;20423;-61
2022/06/07 04:30:21;;;;;;;22.05;13.95;;;;;;;;;;4930267;28;20119;-61
2022/06/07 04:32:47;;;;;;;21.20;14.18;;;;;;;;;;4913300;28;20487;-61
2022/06/07 04:35:18;;;;;;;21.95;13.82;;;;;;;;;;4913125;28;20461;-62
2022/06/07 04:37:47;;;;;;;19.58;13.23;;;;;;;;;;4930173;28;20032;-60
2022/06/07 04:40:14;;;;;;;19.83;12.60;;;;;;;;;;4913082;28;20028;-61
2022/06/07 04:42:41;;;;;;;19.42;12.40;;;;;;;;;;4930096;29;20048;-61
2022/06/07 04:45:09;;;;;;;19.30;12.10;;;;;;;;;;4915983;28;20052;-61
2022/06/07 04:47:36;;;;;;;19.67;12.10;;;;;;;;;;4932986;28;20036;-60
2022/06/07 04:50:03;;;;;;;21.10;12.68;;;;;;;;;;4916234;28;20055;-58
2022/06/07 04:52:29;;;;;;;18.30;11.57;;;;;;;;;;4933190;29;20043;-58
2022/06/07 04:54:55;;;;;;;19.70;11.55;;;;;;;;;;4916130;28;20023;-59
2022/06/07 04:57:21;;;;;;;20.25;12.00;;;;;;;;;;4932636;29;20020;-60
2022/06/07 04:59:47;;;;;;;18.77;11.80;;;;;;;;;;4933055;28;20024;-59
2022/06/07 05:02:13;;;;;;;18.45;11.38;;;;;;;;;;4930060;29;20411;-60
2022/06/07 05:04:39;;;;;;;20.05;11.45;;;;;;;;;;4905436;28;20111;-55
2022/06/07 05:07:05;;;;;;;23.35;11.55;;;;;;;;;;4922635;29;20446;-58
2022/06/07 05:09:31;;;;;;;18.50;11.13;;;;;;;;;;4923582;28;20520;-60
2022/06/07 05:11:58;;;;;;;19.35;10.80;;;;;;;;;;4921455;28;20107;-61
2022/06/07 05:14:24;;;;;;;19.83;11.52;;;;;;;;;;4922726;28;20036;-60
2022/06/07 05:16:50;;;;;;;19.73;10.93;;;;;;;;;;4922016;29;20035;-60
2022/06/07 05:19:16;;;;;;;20.48;10.80;;;;;;;;;;4923261;29;20103;-57
2022/06/07 05:21:43;;;;;;;16.77;10.38;;;;;;;;;;4922600;29;20020;-59
2022/06/07 05:24:09;;;;;;;18.33;11.48;;;;;;;;;;4922495;29;20028;-60
2022/06/07 05:26:42;;;;;;;24.08;12.52;;;;;;;;;;4906730;29;20122;-61
2022/06/07 05:29:17;;;;;;;17.90;10.93;;;;;;;;;;4922802;28;20337;-60
2022/06/07 05:31:43;;;;;;;18.10;10.55;;;;;;;;;;4924995;29;20395;-60
2022/06/07 05:34:09;;;;;;;18.77;10.45;;;;;;;;;;4915552;28;20509;-57
2022/06/07 05:36:35;;;;;;;18.92;10.57;;;;;;;;;;4932762;28;20042;-59
2022/06/07 05:39:03;;;;;;;19.70;10.90;;;;;;;;;;4932234;29;20101;-59
2022/06/07 05:41:29;;;;;;;20.27;11.27;;;;;;;;;;4932489;28;20024;-56
2022/06/07 05:43:55;;;;;;;18.98;10.80;;;;;;;;;;4915179;28;20075;-59
2022/06/07 05:46:21;;;;;;;19.05;11.35;;;;;;;;;;4915241;28;20123;-60
2022/06/07 05:48:47;;;;;;;18.80;10.40;;;;;;;;;;4931978;29;20105;-59
2022/06/07 05:51:13;;;;;;;18.35;10.90;;;;;;;;;;4932070;29;20040;-61
2022/06/07 05:53:39;;;;;;;19.17;10.55;;;;;;;;;;4915066;28;20035;-57
2022/06/07 05:56:07;;;;;;;18.17;9.95;;;;;;;;;;4930769;28;20027;-60
2022/06/07 05:58:33;;;;;;;18.58;10.50;;;;;;;;;;4932019;29;20032;-60
2022/06/07 06:00:59;;;;;;;20.52;10.60;;;;;;;;;;4931853;28;20028;-60
2022/06/07 06:03:25;;;;;;;17.10;9.73;;;;;;;;;;4931719;29;20063;-59
2022/06/07 06:05:51;;;;;;;17.65;10.98;;;;;;;;;;4931104;29;20105;-59
2022/06/07 06:11:04;;;;;;;19.52;10.40;;;;;;;;;;4931843;29;20178;-60
2022/06/07 06:13:30;;;;;;;20.58;10.93;;;;;;;;;;4931676;28;20523;-60
2022/06/07 06:16:03;;;;;;;17.77;9.88;;;;;;;;;;4914758;28;20042;-59
2022/06/07 06:18:29;;;;;;;16.92;9.77;;;;;;;;;;4931349;29;20024;-60
2022/06/07 06:20:55;;;;;;;18.02;10.38;;;;;;;;;;4931354;29;20115;-59
2022/06/07 06:23:21;;;;;;;18.95;9.73;;;;;;;;;;4931760;29;20028;-58
2022/06/07 06:25:47;;;;;;;19.23;9.68;;;;;;;;;;4931473;29;20028;-60
2022/06/07 06:28:13;;;;;;;18.85;10.02;;;;;;;;;;4931481;29;20053;-61
2022/06/07 06:30:42;;;;;;;16.67;9.73;;;;;;;;;;4931628;29;20397;-61
2022/06/07 06:33:08;;;;;;;18.90;9.68;;;;;;;;;;4931567;29;20081;-59
2022/06/07 06:35:34;;;;;;;17.98;9.57;;;;;;;;;;4931397;29;20080;-61
2022/06/07 06:38:00;;;;;;;18.05;9.02;;;;;;;;;;4930902;29;20035;-60
2022/06/07 06:40:26;;;;;;;16.88;9.70;;;;;;;;;;4930992;29;20083;-60
2022/06/07 06:42:52;;;;;;;18.70;10.20;;;;;;;;;;4931414;29;20400;-61
2022/06/07 06:45:18;;;;;;;18.30;9.88;;;;;;;;;;4914392;28;20080;-61
2022/06/07 06:47:44;;;;;;;17.13;10.07;;;;;;;;;;4930871;29;20446;-60
2022/06/07 06:50:11;;;;;;;18.77;9.50;;;;;;;;;;4914035;28;20085;-60
2022/06/07 06:52:37;;;;;;;20.95;9.82;;;;;;;;;;4931252;29;20373;-59
2022/06/07 06:55:03;;;;;;;17.48;9.48;;;;;;;;;;4930988;29;20036;-60
2022/06/07 06:57:29;;;;;;;17.77;9.85;;;;;;;;;;4930902;29;20027;-60
2022/06/07 06:59:55;;;;;;;18.85;9.20;;;;;;;;;;4931191;29;20400;-60
2022/06/07 07:02:21;;;;;;;17.63;9.50;;;;;;;;;;4931262;29;20020;-60
2022/06/07 07:04:47;;;;;;;20.52;10.10;;;;;;;;;;4931315;29;20106;-60
2022/06/07 07:07:13;;;;;;;18.58;10.00;;;;;;;;;;4930704;29;20114;-60
2022/06/07 07:09:39;;;;;;;27.88;10.82;;;;;;;;;;4959256;23;20101;-58
2022/06/07 07:12:05;;;;;;;19.67;10.35;;;;;;;;;;4934712;29;20284;-59
2022/06/07 07:14:31;;;;;;;17.33;9.88;;;;;;;;;;4951510;29;20113;-58
2022/06/07 07:16:57;;;;;;;17.67;9.52;;;;;;;;;;4933918;29;20073;-59
2022/06/07 07:19:23;;;;;;;17.15;10.40;;;;;;;;;;4950660;29;20112;-59
2022/06/07 07:21:51;;;;;;;20.02;10.60;;;;;;;;;;4950981;28;20053;-54
2022/06/07 07:24:19;;;;;;;18.52;10.93;;;;;;;;;;4951598;28;20087;-59
2022/06/07 07:26:45;;;;;;;17.98;10.93;;;;;;;;;;4950959;28;20467;-59
2022/06/07 07:29:12;;;;;;;18.88;10.65;;;;;;;;;;4950678;28;20076;-57
2022/06/07 07:31:38;;;;;;;17.48;10.60;;;;;;;;;;4950998;28;20034;-59
2022/06/07 07:34:07;;;;;;;20.55;11.50;;;;;;;;;;4951018;29;20031;-59
2022/06/07 07:36:33;;;;;;;19.23;11.65;;;;;;;;;;4943728;28;20513;-59
2022/06/07 07:39:01;;;;;;;17.98;11.07;;;;;;;;;;4950483;28;20038;-59
2022/06/07 07:41:28;;;;;;;20.08;11.57;;;;;;;;;;4952079;29;20026;-58
2022/06/07 07:43:55;;;;;;;18.27;11.07;;;;;;;;;;4949907;28;20079;-59
2022/06/07 07:46:22;;;;;;;18.75;11.27;;;;;;;;;;4931868;28;20396;-60
2022/06/07 07:48:49;;;;;;;20.08;11.65;;;;;;;;;;4914322;28;20028;-58
2022/06/07 07:51:19;;;;;;;19.77;12.73;;;;;;;;;;4931973;28;20039;-57
2022/06/07 07:53:45;;;;;;;19.20;11.43;;;;;;;;;;4943292;28;20081;-59
2022/06/07 07:56:12;;;;;;;17.75;11.63;;;;;;;;;;4950686;28;20092;-59
2022/06/07 07:58:38;;;;;;;20.25;11.60;;;;;;;;;;4950880;28;20133;-59
2022/06/07 08:01:08;;;;;;;19.10;11.77;;;;;;;;;;4950725;28;20102;-58
2022/06/07 08:03:34;;;;;;;20.40;12.27;;;;;;;;;;4951099;28;20468;-58
2022/06/07 08:06:00;;;;;;;20.23;12.05;;;;;;;;;;4950727;28;20063;-57
2022/06/07 08:08:26;;;;;;;19.10;11.95;;;;;;;;;;4950520;28;20042;-57
2022/06/07 08:10:52;;;;;;;21.85;11.93;;;;;;;;;;4938909;28;20517;-61
2022/06/07 08:13:18;;;;;;;19.65;12.13;;;;;;;;;;4932852;28;20038;-56
2022/06/07 08:15:45;;;;;;;17.45;11.25;;;;;;;;;;4931585;28;20511;-57
2022/06/07 08:18:11;;;;;;;21.23;12.35;;;;;;;;;;4931862;28;20031;-56
2022/06/07 08:20:38;;;;;;;18.48;11.88;;;;;;;;;;4918580;28;20385;-59
2022/06/07 08:23:06;;;;;;;17.77;11.43;;;;;;;;;;4918282;28;20031;-59
2022/06/07 08:25:32;;;;;;;20.67;12.50;;;;;;;;;;4935443;28;20038;-54
2022/06/07 08:27:58;;;;;;;19.75;12.57;;;;;;;;;;4934918;28;20032;-58
2022/06/07 08:30:24;;;;;;;19.08;12.38;;;;;;;;;;4918237;28;20032;-56
2022/06/07 08:32:50;;;;;;;19.38;11.77;;;;;;;;;;4934896;28;20028;-57
2022/06/07 08:38:03;;;;;;;19.63;12.40;;;;;;;;;;4952714;28;20093;-56
2022/06/07 08:40:34;;;;;;;19.42;11.90;;;;;;;;;;4954169;29;20027;-57
2022/06/07 08:43:01;;;;;;;20.48;11.68;;;;;;;;;;4929641;28;20045;-55
2022/06/07 08:45:29;;;;;;;18.58;11.65;;;;;;;;;;4934447;28;20082;-57
2022/06/07 08:48:02;;;;;;;21.75;12.57;;;;;;;;;;4917228;28;20039;-55
2022/06/07 08:50:34;;;;;;;22.17;13.45;;;;;;;;;;4919882;28;20158;-54
2022/06/07 08:53:01;;;;;;;21.88;14.23;;;;;;;;;;4934902;29;20028;-56
2022/06/07 08:55:31;;;;;;;19.83;13.60;;;;;;;;;;4934380;29;20028;-57
2022/06/07 08:57:58;;;;;;;20.20;11.82;;;;;;;;;;4934143;28;20024;-54
2022/06/07 09:00:26;;;;;;;19.23;12.75;;;;;;;;;;4917181;28;20122;-53
2022/06/07 09:03:22;;;;;;;18.70;12.38;;;;;;;;;;4934518;28;20425;-56
2022/06/07 09:05:51;;;;;;;18.40;11.40;;;;;;;;;;4866384;29;20399;-58
2022/06/07 09:08:17;;;;;;;20.92;13.02;;;;;;;;;;4933788;29;20031;-55
2022/06/07 09:13:32;;;;;;;19.00;12.70;;;;;;;;;;4953401;29;20568;-55
2022/06/07 09:15:58;;;;;;;19.33;11.40;;;;;;;;;;4948274;28;20062;-56
2022/06/07 09:18:25;;;;;;;22.13;11.82;;;;;;;;;;4935030;28;20024;-54
2022/06/07 09:20:57;;;;;;;19.23;11.43;;;;;;;;;;4935903;28;20038;-52
2022/06/07 09:23:23;;;;;;;21.20;12.13;;;;;;;;;;4953114;29;20035;-56
2022/06/07 09:25:51;;;;;;;18.27;11.63;;;;;;;;;;4952890;28;20035;-59
2022/06/07 09:28:27;;;;;;;18.33;12.20;;;;;;;;;;4934650;28;20023;-54
2022/06/07 09:31:12;;;;;;;20.33;12.40;;;;;;;;;;4934168;28;20399;-58
2022/06/07 09:34:10;;;;;;;18.67;10.95;;;;;;;;;;4952185;28;20043;-55
2022/06/07 09:36:38;;;;;;;21.25;11.70;;;;;;;;;;4953294;28;20043;-58
2022/06/07 09:39:28;;;;;;;19.23;11.57;;;;;;;;;;4935841;28;20430;-58
2022/06/07 09:41:57;;;;;;;20.85;12.60;;;;;;;;;;4952325;29;20058;-54
2022/06/07 09:44:30;;;;;;;18.35;12.00;;;;;;;;;;4935589;28;20039;-56
2022/06/07 09:47:01;;;;;;;19.30;12.25;;;;;;;;;;4935773;28;20027;-53
2022/06/07 09:49:28;;;;;;;18.35;11.50;;;;;;;;;;4935230;28;20114;-52
2022/06/07 09:51:55;;;;;;;18.77;12.10;;;;;;;;;;4952695;29;20055;-56
2022/06/07 09:54:22;;;;;;;18.20;12.15;;;;;;;;;;4952650;28;20176;-57
2022/06/07 09:56:48;;;;;;;16.90;11.75;;;;;;;;;;4952584;28;20035;-55
2022/06/07 09:59:32;;;;;;;18.25;12.07;;;;;;;;;;4952256;29;20142;-58
2022/06/07 10:02:13;;;;;;;18.10;10.75;;;;;;;;;;4935256;28;20023;-57
2022/06/07 10:04:51;;;;;;;19.13;10.95;;;;;;;;;;4935107;28;20365;-55
2022/06/07 10:07:24;;;;;;;18.38;11.45;;;;;;;;;;4951865;28;20491;-54
2022/06/07 10:10:13;;;;;;;18.48;11.13;;;;;;;;;;4952023;28;20051;-54
2022/06/07 10:12:44;;;;;;;19.02;10.38;;;;;;;;;;4951799;29;20035;-55
2022/06/07 10:15:16;;;;;;;17.90;10.95;;;;;;;;;;4952014;29;20027;-53
2022/06/07 10:17:54;;;;;;;18.80;10.73;;;;;;;;;;4934448;28;20376;-56
2022/06/07 10:20:20;;;;;;;17.52;10.00;;;;;;;;;;4952233;29;20462;-58
2022/06/07 10:22:53;;;;;;;16.95;9.82;;;;;;;;;;4934695;28;20031;-57
2022/06/07 10:25:24;;;;;;;16.25;10.27;;;;;;;;;;4934997;28;20027;-55
2022/06/07 10:27:56;;;;;;;16.33;10.93;;;;;;;;;;4951729;28;20110;-56
2022/06/07 10:30:34;;;;;;;16.02;10.27;;;;;;;;;;4934804;28;20541;-56
2022/06/07 10:33:00;;;;;;;;;;;;;;;;;;4952297;28;20023;-55
2022/06/07 10:35:42;;;;;;;19.02;10.25;;;;;;;;;;4951978;28;19933;-52
2022/06/07 10:38:20;;;;;;;16.45;10.80;;;;;;;;;;4951441;28;20050;-59
2022/06/07 10:40:55;;;;;;;17.17;11.48;;;;;;;;;;4952153;28;20138;-53
2022/06/07 10:43:23;;;;;;;16.90;11.07;;;;;;;;;;4951692;29;20038;-57
2022/06/07 10:45:50;;;;;;;19.33;10.95;;;;;;;;;;4935651;28;20122;-58
2022/06/07 10:48:23;;;;;;;16.77;10.43;;;;;;;;;;4934320;28;20038;-56
2022/06/07 10:50:49;;;;;;;17.00;10.50;;;;;;;;;;4951509;28;20019;-54
2022/06/07 10:53:19;;;;;;;16.23;10.43;;;;;;;;;;4952016;28;20438;-52
2022/06/07 10:55:51;;;;;;;16.20;10.88;;;;;;;;;;4952324;29;20077;-55
2022/06/07 10:58:31;;;;;;;15.57;10.70;;;;;;;;;;4951783;28;20019;-52
2022/06/07 11:01:00;;;;;;;15.70;10.93;;;;;;;;;;4951970;28;20027;-53
2022/06/07 11:03:31;;;;;;;16.25;10.38;;;;;;;;;;4951025;28;20073;-54
2022/06/07 11:09:21;;;;;;;15.68;10.52;;;;;;;;;;4951134;28;20046;-54
2022/06/07 11:11:55;;;;;;;16.73;10.85;;;;;;;;;;4951660;29;20051;-58
2022/06/07 11:14:30;;;;;;;15.60;10.27;;;;;;;;;;4951645;29;20027;-54
2022/06/07 11:17:14;;;;;;;15.85;10.40;;;;;;;;;;4934245;28;20447;-58
2022/06/07 11:19:41;;;;;;;15.45;10.52;;;;;;;;;;4950825;28;20030;-55
2022/06/07 11:22:13;;;;;;;15.40;10.52;;;;;;;;;;4951046;29;20030;-56
2022/06/07 11:24:52;;;;;;;15.68;10.38;;;;;;;;;;4951595;29;20028;-56
2022/06/07 11:27:20;;;;;;;15.40;10.50;;;;;;;;;;4950774;29;20097;-55
2022/06/07 11:29:46;;;;;;;16.60;10.23;;;;;;;;;;4951243;29;20110;-55
2022/06/07 11:32:31;;;;;;;15.60;10.55;;;;;;;;;;4951980;29;20027;-57
2022/06/07 11:35:17;;;;;;;15.77;10.57;;;;;;;;;;4951723;28;20031;-56
2022/06/07 11:37:51;;;;;;;15.88;10.75;;;;;;;;;;4933035;28;20028;-55
2022/06/07 11:40:27;;;;;;;16.83;11.00;;;;;;;;;;4951120;29;20388;-55
2022/06/07 11:42:53;;;;;;;17.45;10.63;;;;;;;;;;4951043;28;20038;-56
2022/06/07 11:45:24;;;;;;;15.13;10.20;;;;;;;;;;4933674;28;20024;-55
2022/06/07 11:48:09;;;;;;;15.98;10.85;;;;;;;;;;4950421;28;20028;-58
2022/06/07 11:50:54;;;;;;;16.25;10.55;;;;;;;;;;4933751;28;20027;-54
2022/06/07 11:53:29;;;;;;;17.52;11.13;;;;;;;;;;4950103;28;20023;-55
2022/06/07 11:56:01;;;;;;;17.85;11.60;;;;;;;;;;4951210;29;20027;-55
2022/06/07 11:58:46;;;;;;;17.70;11.48;;;;;;;;;;4950589;28;20383;-57
2022/06/07 12:01:44;;;;;;;19.60;13.30;;;;;;;;;;4950838;28;20030;-58
2022/06/07 12:04:10;;;;;;;;;;;;;;;;;;4951762;29;20082;-59
2022/06/07 12:06:38;;;;;;;17.30;12.52;;;;;;;;;;4951584;28;19929;-54
2022/06/07 12:09:06;;;;;;;18.35;13.20;;;;;;;;;;4950018;29;20502;-55
2022/06/07 12:11:39;;;;;;;24.77;12.70;;;;;;;;;;4950714;29;20066;-59
2022/06/07 12:14:05;;;;;;;17.98;11.73;;;;;;;;;;4951365;29;20058;-58
2022/06/07 12:17:03;;;;;;;17.50;12.10;;;;;;;;;;4951240;28;20031;-52
2022/06/07 12:19:34;;;;;;;16.52;11.20;;;;;;;;;;4950387;29;20488;-59
2022/06/07 12:22:06;;;;;;;17.05;10.73;;;;;;;;;;4938782;28;20052;-53
2022/06/07 12:25:06;;;;;;;16.58;11.15;;;;;;;;;;4942141;28;20015;-54
2022/06/07 12:27:44;;;;;;;18.33;11.55;;;;;;;;;;4950660;28;20040;-59
2022/06/07 12:30:25;;;;;;;18.75;11.77;;;;;;;;;;4950446;28;20023;-58
2022/06/07 12:32:51;;;;;;;17.88;12.13;;;;;;;;;;4950758;28;20534;-55
2022/06/07 12:35:24;;;;;;;16.95;11.82;;;;;;;;;;4950865;28;20019;-58
2022/06/07 12:37:53;;;;;;;18.40;12.55;;;;;;;;;;4950035;28;20047;-55
2022/06/07 12:40:24;;;;;;;20.58;13.65;;;;;;;;;;4950816;29;20030;-57
2022/06/07 12:42:51;;;;;;;17.70;11.77;;;;;;;;;;4950613;28;20081;-57
2022/06/07 12:45:22;;;;;;;16.92;11.45;;;;;;;;;;4604196;29;10000700;-56
2022/06/07 12:47:54;;;;;;;18.10;11.48;;;;;;;;;;4936066;28;20027;-54
2022/06/07 12:50:22;;;;;;;17.90;11.77;;;;;;;;;;4918933;29;20084;-58
2022/06/07 12:52:52;;;;;;;16.77;11.70;;;;;;;;;;4935287;29;20102;-58
2022/06/07 12:55:22;;;;;;;17.92;11.93;;;;;;;;;;4937775;28;20023;-58
2022/06/07 12:57:51;;;;;;;16.95;12.13;;;;;;;;;;4918816;28;20391;-59
2022/06/07 13:00:20;;;;;;;16.38;11.98;;;;;;;;;;4935746;28;21447;-58
2022/06/07 13:02:49;;;;;;;17.42;12.45;;;;;;;;;;4933594;29;20115;-58
2022/06/07 13:05:14;;;;;;;;;;;;;;;;;;4938129;28;20028;-56
2022/06/07 13:07:48;;;;;;;16.70;12.27;;;;;;;;;;4918064;28;20581;-53
2022/06/07 13:10:19;;;;;;;17.65;11.40;;;;;;;;;;4961352;23;20101;-59
2022/06/07 13:12:46;;;;;;;16.65;11.60;;;;;;;;;;4950231;28;20124;-58
2022/06/07 13:15:17;;;;;;;16.35;11.20;;;;;;;;;;4950396;28;20092;-59
2022/06/07 13:17:53;;;;;;;16.33;11.43;;;;;;;;;;4949043;28;20035;-61
2022/06/07 13:20:24;;;;;;;15.73;11.10;;;;;;;;;;4950261;28;20012;-61
2022/06/07 13:22:50;;;;;;;16.70;11.48;;;;;;;;;;4950237;29;20721;-60
2022/06/07 13:25:19;;;;;;;16.13;11.27;;;;;;;;;;4949957;28;20147;-60
2022/06/07 13:27:50;;;;;;;18.33;11.57;;;;;;;;;;4949654;28;20023;-60
2022/06/07 13:30:16;;;;;;;17.10;11.60;;;;;;;;;;4949992;28;20019;-59
2022/06/07 13:32:42;;;;;;;18.75;11.43;;;;;;;;;;4951684;28;20030;-56
2022/06/07 13:35:19;;;;;;;19.00;12.00;;;;;;;;;;4951047;28;20028;-61
2022/06/07 13:38:05;;;;;;;17.80;11.95;;;;;;;;;;4942997;28;20027;-59
2022/06/07 13:40:33;;;;;;;18.45;12.90;;;;;;;;;;4916732;29;20055;-63
2022/06/07 13:42:59;;;;;;;;;;;;;;;;;;4934133;28;20024;-59
2022/06/07 13:45:26;;;;;;;17.40;13.23;;;;;;;;;;4934043;29;19914;-61
2022/06/07 13:47:58;;;;;;;17.02;13.07;;;;;;;;;;4933371;28;20094;-63
2022/06/07 13:53:27;;;;;;;19.80;13.00;;;;;;;;;;4933195;29;20086;-64
2022/06/07 13:55:53;;;;;;;18.33;12.52;;;;;;;;;;4946485;28;20027;-63
2022/06/07 13:58:20;;;;;;;18.60;12.05;;;;;;;;;;4952395;28;20024;-61
2022/06/07 14:00:47;;;;;;;16.73;12.52;;;;;;;;;;4952592;28;20023;-62
2022/06/07 14:03:17;;;;;;;18.15;12.70;;;;;;;;;;4952060;28;20093;-61
2022/06/07 14:05:43;;;;;;;18.05;12.18;;;;;;;;;;4952463;28;20076;-63
2022/06/07 14:08:13;;;;;;;17.10;12.65;;;;;;;;;;4951912;28;20034;-63
2022/06/07 14:10:39;;;;;;;17.77;12.50;;;;;;;;;;4951973;28;20031;-62
2022/06/07 14:13:05;;;;;;;29.50;14.25;;;;;;;;;;4952188;28;20027;-61
2022/06/07 14:15:33;;;;;;;18.15;12.77;;;;;;;;;;4951879;28;20042;-63
2022/06/07 14:17:59;;;;;;;17.55;12.43;;;;;;;;;;4951199;28;20023;-63
2022/06/07 14:20:25;;;;;;;20.13;12.88;;;;;;;;;;4951915;28;20135;-63
2022/06/07 14:22:53;;;;;;;17.58;12.32;;;;;;;;;;4608780;28;10000129;-65
2022/06/07 14:25:23;;;;;;;17.13;12.13;;;;;;;;;;4949474;28;20028;-65
2022/06/07 14:27:52;;;;;;;19.52;13.25;;;;;;;;;;4948965;28;20384;-63
2022/06/07 14:30:18;;;;;;;16.70;12.68;;;;;;;;;;4948922;29;20518;-65
2022/06/07 14:32:49;;;;;;;18.35;13.13;;;;;;;;;;4948808;29;20114;-65
2022/06/07 14:35:15;;;;;;;19.00;12.38;;;;;;;;;;4931835;28;20039;-65
2022/06/07 14:37:41;;;;;;;16.63;12.23;;;;;;;;;;4940387;29;20395;-64
2022/06/07 14:40:28;;;;;;;18.30;12.65;;;;;;;;;;4929960;29;20028;-64
2022/06/07 14:42:54;;;;;;;17.02;12.30;;;;;;;;;;4929945;29;20414;-64
2022/06/07 14:45:21;;;;;;;17.33;12.88;;;;;;;;;;4913053;29;20075;-65
2022/06/07 14:47:48;;;;;;;19.15;13.00;;;;;;;;;;4929918;29;20046;-64
2022/06/07 14:50:19;;;;;;;18.42;12.45;;;;;;;;;;4929966;29;20499;-65